createdAt,value
2019-05-25T00:02:14.789Z,98390.66
2019-05-25T00:07:20.116Z,98395.81
2019-05-25T00:12:25.549Z,98403.22
2019-05-25T00:17:30.898Z,98398.36
2019-05-25T00:22:36.516Z,98399.50
2019-05-25T00:27:41.830Z,98404.50
2019-05-25T00:32:47.918Z,98403.64
2019-05-25T00:37:53.258Z,98409.30
2019-05-25T00:42:58.531Z,98417.34
2019-05-25T00:48:04.080Z,98413.08
2019-05-25T00:53:09.405Z,98416.05
2019-05-25T00:58:14.707Z,98414.39
2019-05-25T01:03:19.936Z,98416.72
2019-05-25T01:08:25.978Z,98418.86
2019-05-25T01:13:31.236Z,98422.04
2019-05-25T01:18:36.477Z,98424.13
2019-05-25T01:23:43.576Z,98431.59
2019-05-25T01:28:48.838Z,98431.73
2019-05-25T01:33:54.082Z,98427.67
2019-05-25T01:38:59.624Z,98432.81
2019-05-25T01:44:04.899Z,98425.19
2019-05-25T01:49:10.328Z,98437.19
2019-05-25T01:54:16.937Z,98440.15
2019-05-25T01:59:22.285Z,98440.25
2019-05-25T02:04:28.248Z,98442.21
2019-05-25T02:09:33.573Z,98450.66
2019-05-25T02:14:38.805Z,98443.23
2019-05-25T02:19:44.135Z,98448.89
2019-05-25T02:24:50.184Z,98440.09
2019-05-25T02:29:55.601Z,98445.06
2019-05-25T02:35:02.274Z,98443.74
2019-05-25T02:40:09.437Z,98450.86
2019-05-25T02:45:16.086Z,98443.01
2019-05-25T02:50:22.289Z,98447.31
2019-05-25T02:55:34.190Z,98449.94
2019-05-25T03:00:35.366Z,98449.25
2019-05-25T03:05:42.409Z,98447.38
2019-05-25T03:10:49.844Z,98450.27
2019-05-25T03:15:55.597Z,98447.64
2019-05-25T03:21:01.502Z,98440.98
2019-05-25T03:26:07.371Z,98444.59
2019-05-25T03:31:12.648Z,98445.21
2019-05-25T03:36:18.066Z,98452.96
2019-05-25T03:41:24.680Z,98458.02
2019-05-25T03:46:29.959Z,98466.07
2019-05-25T03:51:35.627Z,98469.83
2019-05-25T03:56:40.832Z,98470.02
2019-05-25T04:01:46.394Z,98481.23
2019-05-25T04:06:51.662Z,98479.24
2019-05-25T04:11:57.020Z,98475.17
2019-05-25T04:17:02.272Z,98476.36
2019-05-25T04:22:07.534Z,98485.59
2019-05-25T04:27:12.865Z,98489.31
2019-05-25T04:32:18.223Z,98492.50
2019-05-25T04:37:23.443Z,98495.17
2019-05-25T04:42:28.678Z,98490.17
2019-05-25T04:47:33.890Z,98493.89
2019-05-25T04:52:41.412Z,98492.91
2019-05-25T04:57:47.177Z,98491.58
2019-05-25T05:02:52.471Z,98496.16
2019-05-25T05:07:57.686Z,98505.70
2019-05-25T05:13:03.188Z,98509.37
2019-05-25T05:18:08.432Z,98514.36
2019-05-25T05:23:14.057Z,98504.08
2019-05-25T05:28:19.293Z,98509.72
2019-05-25T05:33:24.597Z,98513.84
2019-05-25T05:38:30.138Z,98520.12
2019-05-25T05:43:38.306Z,98512.93
2019-05-25T05:48:45.533Z,98514.63
2019-05-25T05:53:55.784Z,98521.17
2019-05-25T05:59:01.060Z,98520.48
2019-05-25T06:04:06.654Z,98519.30
2019-05-25T06:09:12.329Z,98525.07
2019-05-25T06:14:17.505Z,98521.84
2019-05-25T06:19:23.077Z,98522.53
2019-05-25T06:24:28.291Z,98528.72
2019-05-25T06:29:33.984Z,98529.00
2019-05-25T06:34:39.492Z,98530.87
2019-05-25T06:39:44.758Z,98527.81
2019-05-25T06:44:50.360Z,98536.50
2019-05-25T06:49:55.588Z,98534.87
2019-05-25T06:55:00.793Z,98532.31
2019-05-25T07:00:06.977Z,98537.75
2019-05-25T07:05:13.453Z,98533.84
2019-05-25T07:10:18.813Z,98546.61
2019-05-25T07:15:24.027Z,98546.96
2019-05-25T07:20:29.349Z,98551.45
2019-05-25T07:25:34.615Z,98552.69
2019-05-25T07:30:39.989Z,98554.62
2019-05-25T07:35:45.276Z,98557.27
2019-05-25T07:40:50.569Z,98565.46
2019-05-25T07:45:55.976Z,98569.58
2019-05-25T07:51:01.264Z,98566.18
2019-05-25T07:56:06.514Z,98562.34
2019-05-25T08:01:11.782Z,98563.98
2019-05-25T08:06:16.998Z,98568.10
2019-05-25T08:11:22.325Z,98569.43
2019-05-25T08:16:28.397Z,98570.05
2019-05-25T08:21:33.859Z,98566.47
2019-05-25T08:26:39.090Z,98562.17
2019-05-25T08:31:44.577Z,98573.37
2019-05-25T08:36:50.113Z,98576.55
2019-05-25T08:41:55.770Z,98569.06
2019-05-25T08:47:01.308Z,98578.96
2019-05-25T08:52:06.540Z,98583.02
2019-05-25T08:57:16.164Z,98573.91
2019-05-25T09:02:18.900Z,98573.23
2019-05-25T09:07:24.670Z,98577.08
2019-05-25T09:12:30.083Z,98573.72
2019-05-25T09:17:35.427Z,98572.42
2019-05-25T09:22:40.665Z,98570.41
2019-05-25T09:27:45.943Z,98568.61
2019-05-25T09:32:51.224Z,98570.88
2019-05-25T09:37:56.544Z,98572.57
2019-05-25T09:43:01.840Z,98581.38
2019-05-25T09:48:07.507Z,98589.34
2019-05-25T09:53:12.840Z,98582.25
2019-05-25T09:58:18.143Z,98571.39
2019-05-25T10:03:23.367Z,98569.92
2019-05-25T10:08:28.873Z,98577.03
2019-05-25T10:13:35.261Z,98576.81
2019-05-25T10:18:40.583Z,98579.50
2019-05-25T10:23:45.818Z,98577.05
2019-05-25T10:28:51.537Z,98576.64
2019-05-25T10:33:57.202Z,98565.95
2019-05-25T10:39:02.504Z,98560.75
2019-05-25T10:44:07.752Z,98559.06
2019-05-25T10:49:13.405Z,98561.19
2019-05-25T10:54:18.687Z,98564.92
2019-05-25T10:59:24.308Z,98569.90
2019-05-25T11:04:29.970Z,98553.49
2019-05-25T11:09:35.292Z,98557.20
2019-05-25T11:14:40.611Z,98556.73
2019-05-25T11:19:45.996Z,98559.59
2019-05-25T11:24:51.605Z,98556.30
2019-05-25T11:30:08.577Z,98547.54
2019-05-25T11:40:08.934Z,98536.08
2019-05-25T11:45:14.370Z,98540.72
2019-05-25T11:50:20.118Z,98538.30
2019-05-25T11:55:25.513Z,98528.67
2019-05-25T12:00:31.113Z,98525.47
2019-05-25T12:05:36.384Z,98515.55
2019-05-25T12:10:41.777Z,98508.14
2019-05-25T12:15:47.000Z,98502.22
2019-05-25T12:20:52.232Z,98498.79
2019-05-25T12:25:57.552Z,98501.46
2019-05-25T12:31:02.819Z,98496.54
2019-05-25T12:36:09.399Z,98495.30
2019-05-25T12:41:14.752Z,98494.45
2019-05-25T12:46:19.988Z,98476.67
2019-05-25T12:51:25.997Z,98480.38
2019-05-25T12:56:31.541Z,98478.93
2019-05-25T13:01:36.785Z,98478.02
2019-05-25T13:06:42.322Z,98476.91
2019-05-25T13:11:49.226Z,98477.08
2019-05-25T13:16:54.839Z,98477.16
2019-05-25T13:22:00.188Z,98475.35
2019-05-25T13:27:05.441Z,98466.28
2019-05-25T13:32:10.797Z,98463.69
2019-05-25T13:37:17.901Z,98461.16
2019-05-25T13:42:23.353Z,98463.27
2019-05-25T13:47:28.968Z,98455.42
2019-05-25T13:52:34.900Z,98451.43
2019-05-25T13:57:40.272Z,98444.30
2019-05-25T14:02:46.379Z,98444.56
2019-05-25T14:07:51.681Z,98440.11
2019-05-25T14:12:56.997Z,98440.21
2019-05-25T14:18:03.150Z,98450.53
2019-05-25T14:23:08.917Z,98438.35
2019-05-25T14:28:14.173Z,98439.34
2019-05-25T14:33:19.739Z,98458.00
2019-05-25T14:38:25.333Z,98444.93
2019-05-25T14:43:30.633Z,98438.72
2019-05-25T14:48:36.000Z,98442.88
2019-05-25T14:53:41.261Z,98446.20
2019-05-25T14:58:46.698Z,98446.55
2019-05-25T15:03:53.255Z,98445.94
2019-05-25T15:08:58.511Z,98449.64
2019-05-25T15:14:05.074Z,98451.40
2019-05-25T15:19:10.435Z,98447.53
2019-05-25T15:24:15.737Z,98452.72
2019-05-25T15:29:21.017Z,98448.17
2019-05-25T15:34:26.473Z,98443.12
2019-05-25T15:39:31.822Z,98453.73
2019-05-25T15:44:37.610Z,98457.05
2019-05-25T15:49:43.183Z,98451.19
2019-05-25T15:54:48.400Z,98459.77
2019-05-25T15:59:53.764Z,98450.14
2019-05-25T16:04:59.024Z,98447.92
2019-05-25T16:10:04.843Z,98459.11
2019-05-25T16:15:10.570Z,98455.94
2019-05-25T16:20:19.145Z,98455.86
2019-05-25T16:25:25.445Z,98452.50
2019-05-25T16:30:31.674Z,98462.67
2019-05-25T16:35:37.031Z,98465.13
2019-05-25T16:40:42.961Z,98469.02
2019-05-25T16:45:49.294Z,98461.02
2019-05-25T16:50:54.588Z,98467.52
2019-05-25T16:55:59.930Z,98471.53
2019-05-25T17:01:05.227Z,98474.58
2019-05-25T17:06:11.127Z,98482.11
2019-05-25T17:11:16.804Z,98483.65
2019-05-25T17:16:22.044Z,98488.17
2019-05-25T17:21:27.392Z,98478.33
2019-05-25T17:26:32.932Z,98477.69
2019-05-25T17:31:38.661Z,98481.75
2019-05-25T17:36:44.366Z,98482.63
2019-05-25T17:41:49.729Z,98478.17
2019-05-25T17:46:55.008Z,98480.88
2019-05-25T17:52:00.265Z,98490.48
2019-05-25T17:57:05.853Z,98493.57
2019-05-25T18:02:11.135Z,98492.19
2019-05-25T18:07:16.459Z,98489.30
2019-05-25T18:12:22.057Z,98487.89
2019-05-25T18:17:27.372Z,98492.89
2019-05-25T18:22:32.602Z,98500.42
2019-05-25T18:27:37.880Z,98494.59
2019-05-25T18:32:43.566Z,98496.38
2019-05-25T18:37:49.160Z,98490.31
2019-05-25T18:42:54.676Z,98487.75
2019-05-25T18:47:59.950Z,98492.17
2019-05-25T18:53:05.453Z,98495.42
2019-05-25T18:58:10.965Z,98506.56
2019-05-25T19:03:16.249Z,98509.22
2019-05-25T19:08:21.530Z,98517.13
2019-05-25T19:13:26.760Z,98520.03
2019-05-25T19:18:32.148Z,98531.42
2019-05-25T19:23:37.407Z,98529.32
2019-05-25T19:28:42.631Z,98531.77
2019-05-25T19:33:47.867Z,98533.20
2019-05-25T19:38:53.149Z,98538.13
2019-05-25T19:43:58.648Z,98547.44
2019-05-25T19:49:03.938Z,98552.34
2019-05-25T19:54:09.213Z,98562.50
2019-05-25T19:59:14.568Z,98576.13
2019-05-25T20:04:19.947Z,98578.48
2019-05-25T20:09:25.575Z,98582.03
2019-05-25T20:14:30.842Z,98594.50
2019-05-25T20:19:36.162Z,98605.13
2019-05-25T20:24:41.448Z,98603.79
2019-05-25T20:29:46.999Z,98607.64
2019-05-25T20:34:52.258Z,98613.86
2019-05-25T20:39:57.808Z,98617.89
2019-05-25T20:45:03.073Z,98621.22
2019-05-25T20:50:09.905Z,98619.38
2019-05-25T20:55:15.144Z,98621.53
2019-05-25T21:00:24.117Z,98622.48
2019-05-25T21:05:27.852Z,98613.46
2019-05-25T21:10:33.191Z,98610.91
2019-05-25T21:15:38.523Z,98608.78
2019-05-25T21:20:43.863Z,98615.60
2019-05-25T21:25:49.085Z,98617.03
2019-05-25T21:30:54.776Z,98613.59
2019-05-25T21:36:08.198Z,98617.54
2019-05-25T21:41:07.396Z,98625.69
2019-05-25T21:46:12.727Z,98627.03
2019-05-25T21:51:18.073Z,98631.26
2019-05-25T21:56:23.327Z,98636.02
2019-05-25T22:01:28.839Z,98629.67
2019-05-25T22:06:34.213Z,98626.97
2019-05-25T22:11:39.420Z,98627.02
2019-05-25T22:16:45.147Z,98623.23
2019-05-25T22:21:50.484Z,98627.09
2019-05-25T22:26:56.214Z,98629.70
2019-05-25T22:32:01.535Z,98626.38
2019-05-25T22:37:06.794Z,98621.25
2019-05-25T22:42:12.495Z,98616.95
2019-05-25T22:47:18.725Z,98626.53
2019-05-25T22:52:24.396Z,98620.48
2019-05-25T22:57:29.863Z,98622.68
2019-05-25T23:02:37.097Z,98620.06
2019-05-25T23:07:42.399Z,98619.43
2019-05-25T23:12:47.782Z,98616.98
2019-05-25T23:17:53.497Z,98617.59
2019-05-25T23:22:59.064Z,98611.26
2019-05-25T23:28:04.375Z,98603.92
2019-05-25T23:33:10.861Z,98605.34
2019-05-25T23:38:16.391Z,98598.45
2019-05-25T23:43:22.019Z,98602.20
2019-05-25T23:48:27.495Z,98597.98
2019-05-25T23:53:32.900Z,98601.95
2019-05-25T23:58:38.192Z,98600.86
